createdAt,value
2023-03-03T09:13:51.893Z,65.80
2023-03-03T20:34:19.356Z,62.90
2023-03-03T20:38:48.585Z,62.90
2023-03-03T20:42:53.409Z,63.00
2023-03-03T20:47:04.920Z,63.10
2023-03-03T20:51:13.764Z,63.10
2023-03-03T20:55:22.938Z,63.10
2023-03-03T20:59:35.006Z,63.20
2023-03-03T21:03:39.708Z,63.20
2023-03-03T21:07:53.213Z,63.40
2023-03-03T21:11:56.864Z,63.40
2023-03-03T21:16:09.969Z,63.40
2023-03-03T21:20:32.499Z,63.40
2023-03-03T21:24:59.584Z,63.50
2023-03-03T21:29:03.736Z,64.00
2023-03-03T21:33:07.007Z,64.30
2023-03-03T21:37:11.259Z,64.40
2023-03-03T21:41:17.956Z,64.50
2023-03-03T21:45:20.906Z,64.60
2023-03-03T21:49:23.636Z,64.70
2023-03-03T21:53:26.848Z,64.70
2023-03-03T21:57:29.877Z,64.80
2023-03-03T22:01:38.164Z,65.00
2023-03-03T22:05:41.870Z,65.10
2023-03-03T22:09:44.614Z,65.30
2023-03-03T22:13:47.839Z,65.20
2023-03-03T22:17:51.416Z,65.20
2023-03-03T22:21:54.124Z,65.20
2023-03-03T22:25:56.858Z,65.10
2023-03-03T22:29:59.609Z,65.10
2023-03-03T22:34:02.512Z,65.10
2023-03-03T22:38:05.300Z,65.10
2023-03-03T22:42:08.471Z,65.10
2023-03-03T22:46:11.430Z,65.10
2023-03-03T22:50:14.151Z,65.20
2023-03-03T22:54:17.000Z,65.30
2023-03-03T22:58:20.059Z,65.20
2023-03-03T23:02:22.741Z,65.20
2023-03-03T23:06:25.479Z,65.10
2023-03-03T23:10:28.178Z,65.10
2023-03-03T23:14:31.012Z,65.20
2023-03-03T23:18:36.737Z,65.10
2023-03-03T23:22:39.766Z,65.00
2023-03-03T23:26:42.529Z,65.00
2023-03-03T23:30:45.316Z,65.10
2023-03-03T23:34:48.020Z,65.40
2023-03-03T23:38:50.836Z,65.80
2023-03-03T23:42:53.632Z,66.30
2023-03-03T23:46:56.504Z,66.60
2023-03-03T23:50:59.265Z,66.60
2023-03-03T23:55:02.130Z,66.70
2023-03-03T23:59:04.799Z,67.50
